This is the latest recevied weather packets stored in our database for station/object KD7CIH. If no packets are shown the sender has not sent any weather packets the latest 10 day(s).
| Time | Temp. | Humidity | Pressure | Rain* | Wind** | Luminosity | Snow |
|---|---|---|---|---|---|---|---|
| 1787975766 | 18.89° C | 54% | 1016.6 hPa | 0 mm | - | - | - |
| 1787975467 | 19.44° C | 53% | 1016.5 hPa | 0 mm | - | - | - |
| 1787975294 | 19.44° C | 52% | 1016.5 hPa | 0 mm | - | - | - |
| 1787974867 | 19.44° C | 50% | 1016.4 hPa | 0 mm | - | - | - |
| 1787974567 | 20° C | 50% | 1016.4 hPa | 0 mm | - | - | - |
| 1787974269 | 20° C | 50% | 1016.5 hPa | 0 mm | - | - | - |
| 1787973967 | 20° C | 50% | 1016.4 hPa | 0 mm | - | - | - |
| 1787973795 | 20° C | 51% | 1016.3 hPa | 0 mm | - | - | - |
| 1787973368 | 20.56° C | 50% | 1016.1 hPa | 0 mm | - | - | - |
| 1787973065 | 20.56° C | 51% | 1016 hPa | 0 mm | - | - | - |
| 1787972767 | 20.56° C | 51% | 1016.1 hPa | 0.25 mm | - | - | - |
| 1787972465 | 20.56° C | 49% | 1016 hPa | 0.25 mm | - | - | - |
| 1787972167 | 20.56° C | 52% | 1016 hPa | 0.25 mm | - | - | - |
| 1787971866 | 21.11° C | 50% | 1015.7 hPa | 0.25 mm | - | - | - |
| 1787971693 | 21.11° C | 46% | 1015.9 hPa | 0.25 mm | - | - | - |
| 1787971266 | 21.11° C | 46% | 1015.7 hPa | 0.25 mm | - | - | - |
| 1787970964 | 21.11° C | 45% | 1015.7 hPa | 0.25 mm | - | - | - |
| 1787970666 | 21.67° C | 45% | 1015.8 hPa | 0.25 mm | - | - | - |
| 1787970366 | 21.67° C | 45% | 1015.9 hPa | 0.25 mm | - | - | - |
| 1787970066 | 21.11° C | 46% | 1016 hPa | 0.25 mm | - | - | - |
| 1787969766 | 21.11° C | 44% | 1016 hPa | 0.25 mm | - | - | - |
| 1787969465 | 22.22° C | 43% | 1015.9 hPa | 0.25 mm | - | - | - |
| 1787969165 | 23.89° C | 35% | 1015.5 hPa | 0 mm | - | - | - |
| 1787968867 | 23.89° C | 34% | 1015.4 hPa | 0 mm | - | - | - |
| 1787968566 | 23.89° C | 34% | 1015.1 hPa | 0 mm | - | - | - |
* Rain latest hour (hover to see other rain measurements)
** Current wind speed in m/s (hover to see current wind gust speed)